sensor_id;sensor_type;location;lat;lon;timestamp;pressure;altitude;pressure_sealevel;temperature;humidity
42859;BME280;28505;56.970;40.998;2023-01-08T00:04:09;101023.56;;;-16.81;100.00
42859;BME280;28505;56.970;40.998;2023-01-08T00:09:32;101028.34;;;-16.74;100.00
42859;BME280;28505;56.970;40.998;2023-01-08T00:14:54;101028.97;;;-16.71;100.00
42859;BME280;28505;56.970;40.998;2023-01-08T00:20:18;101014.63;;;-16.75;100.00
42859;BME280;28505;56.970;40.998;2023-01-08T00:25:40;101021.03;;;-16.68;100.00
42859;BME280;28505;56.970;40.998;2023-01-08T00:31:03;101017.75;;;-16.70;100.00
42859;BME280;28505;56.970;40.998;2023-01-08T00:36:26;101014.63;;;-16.75;100.00
42859;BME280;28505;56.970;40.998;2023-01-08T00:41:50;100982.47;;;-16.98;100.00
42859;BME280;28505;56.970;40.998;2023-01-08T00:47:12;100979.66;;;-16.93;100.00
42859;BME280;28505;56.970;40.998;2023-01-08T00:52:35;100996.56;;;-16.75;100.00
42859;BME280;28505;56.970;40.998;2023-01-08T00:57:57;101008.91;;;-16.66;100.00
42859;BME280;28505;56.970;40.998;2023-01-08T01:03:19;101000.09;;;-16.76;100.00
42859;BME280;28505;56.970;40.998;2023-01-08T01:08:41;101019.41;;;-16.69;100.00
42859;BME280;28505;56.970;40.998;2023-01-08T01:14:05;101003.34;;;-16.74;100.00
42859;BME280;28505;56.970;40.998;2023-01-08T01:19:27;101011.22;;;-16.75;100.00
42859;BME280;28505;56.970;40.998;2023-01-08T01:24:49;101023.47;;;-16.79;100.00
42859;BME280;28505;56.970;40.998;2023-01-08T01:30:11;101013.72;;;-16.88;100.00
42859;BME280;28505;56.970;40.998;2023-01-08T01:35:33;101025.06;;;-16.77;100.00
42859;BME280;28505;56.970;40.998;2023-01-08T01:40:55;101011.22;;;-16.75;100.00
42859;BME280;28505;56.970;40.998;2023-01-08T01:46:35;101021.50;;;-16.61;100.00
42859;BME280;28505;56.970;40.998;2023-01-08T01:52:00;101018.28;;;-16.65;100.00
42859;BME280;28505;56.970;40.998;2023-01-08T01:57:25;101014.50;;;-16.59;100.00
42859;BME280;28505;56.970;40.998;2023-01-08T02:02:50;101008.59;;;-16.61;100.00
42859;BME280;28505;56.970;40.998;2023-01-08T02:08:41;101018.75;;;-16.44;100.00
42859;BME280;28505;56.970;40.998;2023-01-08T02:14:37;101054.31;;;-16.20;100.00
42859;BME280;28505;56.970;40.998;2023-01-08T02:20:16;101052.00;;;-16.25;100.00
42859;BME280;28505;56.970;40.998;2023-01-08T02:31:40;101051.09;;;-16.24;100.00
42859;BME280;28505;56.970;40.998;2023-01-08T02:37:12;101067.66;;;-16.14;100.00
42859;BME280;28505;56.970;40.998;2023-01-08T02:43:09;101055.25;;;-16.21;100.00
42859;BME280;28505;56.970;40.998;2023-01-08T02:48:48;101073.28;;;-16.07;100.00
42859;BME280;28505;56.970;40.998;2023-01-08T02:54:22;101078.72;;;-15.97;100.00
42859;BME280;28505;56.970;40.998;2023-01-08T02:59:47;101076.13;;;-15.97;100.00
42859;BME280;28505;56.970;40.998;2023-01-08T03:05:29;101069.31;;;-15.98;100.00
42859;BME280;28505;56.970;40.998;2023-01-08T03:11:03;101099.91;;;-15.78;100.00
42859;BME280;28505;56.970;40.998;2023-01-08T03:21:55;101101.09;;;-15.84;100.00
42859;BME280;28505;56.970;40.998;2023-01-08T03:27:23;101071.72;;;-16.10;100.00
42859;BME280;28505;56.970;40.998;2023-01-08T03:32:47;101090.91;;;-16.14;100.00
42859;BME280;28505;56.970;40.998;2023-01-08T03:38:26;101098.19;;;-16.06;100.00
42859;BME280;28505;56.970;40.998;2023-01-08T03:43:50;101101.84;;;-15.96;100.00
42859;BME280;28505;56.970;40.998;2023-01-08T03:49:13;101103.34;;;-15.92;100.00
42859;BME280;28505;56.970;40.998;2023-01-08T03:54:36;101108.78;;;-15.82;100.00
42859;BME280;28505;56.970;40.998;2023-01-08T04:00:07;101114.94;;;-15.85;100.00
42859;BME280;28505;56.970;40.998;2023-01-08T04:06:27;101119.94;;;-15.96;100.00
42859;BME280;28505;56.970;40.998;2023-01-08T04:11:59;101101.59;;;-16.20;100.00
42859;BME280;28505;56.970;40.998;2023-01-08T04:17:27;101091.84;;;-16.43;100.00
42859;BME280;28505;56.970;40.998;2023-01-08T04:22:58;101097.72;;;-16.56;100.00
42859;BME280;28505;56.970;40.998;2023-01-08T04:28:27;101091.00;;;-16.87;100.00
42859;BME280;28505;56.970;40.998;2023-01-08T04:34:04;101093.63;;;-17.03;100.00
42859;BME280;28505;56.970;40.998;2023-01-08T04:39:31;101115.00;;;-17.01;100.00
42859;BME280;28505;56.970;40.998;2023-01-08T04:44:59;101115.34;;;-17.07;100.00
42859;BME280;28505;56.970;40.998;2023-01-08T04:50:22;101120.25;;;-17.02;100.00
42859;BME280;28505;56.970;40.998;2023-01-08T04:56:05;101122.38;;;-16.94;100.00
42859;BME280;28505;56.970;40.998;2023-01-08T05:01:38;101130.88;;;-16.92;100.00
42859;BME280;28505;56.970;40.998;2023-01-08T05:07:01;101155.47;;;-16.72;100.00
42859;BME280;28505;56.970;40.998;2023-01-08T05:12:24;101138.56;;;-16.77;100.00
42859;BME280;28505;56.970;40.998;2023-01-08T05:17:46;101156.31;;;-16.58;100.00
42859;BME280;28505;56.970;40.998;2023-01-08T05:23:11;101150.81;;;-16.52;100.00
42859;BME280;28505;56.970;40.998;2023-01-08T05:28:33;101144.00;;;-16.53;100.00
42859;BME280;28505;56.970;40.998;2023-01-08T05:33:57;101150.47;;;-16.45;100.00
42859;BME280;28505;56.970;40.998;2023-01-08T05:39:20;101179.53;;;-16.27;100.00
42859;BME280;28505;56.970;40.998;2023-01-08T05:44:41;101182.94;;;-16.27;100.00
42859;BME280;28505;56.970;40.998;2023-01-08T05:50:04;101174.28;;;-16.26;100.00
42859;BME280;28505;56.970;40.998;2023-01-08T05:55:26;101169.84;;;-16.24;100.00
42859;BME280;28505;56.970;40.998;2023-01-08T06:00:49;101161.34;;;-16.26;100.00
42859;BME280;28505;56.970;40.998;2023-01-08T06:06:38;101157.47;;;-16.33;100.00
42859;BME280;28505;56.970;40.998;2023-01-08T06:12:15;101187.75;;;-16.07;100.00
42859;BME280;28505;56.970;40.998;2023-01-08T06:17:41;101174.28;;;-16.12;100.00
42859;BME280;28505;56.970;40.998;2023-01-08T06:23:17;101178.59;;;-16.12;100.00
42859;BME280;28505;56.970;40.998;2023-01-08T06:28:39;101196.44;;;-16.08;100.00
42859;BME280;28505;56.970;40.998;2023-01-08T06:34:03;101180.19;;;-16.10;100.00
42859;BME280;28505;56.970;40.998;2023-01-08T06:39:37;101199.19;;;-15.96;100.00
42859;BME280;28505;56.970;40.998;2023-01-08T06:45:02;101209.06;;;-15.89;100.00
42859;BME280;28505;56.970;40.998;2023-01-08T06:51:00;101187.38;;;-16.00;100.00
42859;BME280;28505;56.970;40.998;2023-01-08T06:56:48;101198.91;;;-16.06;100.00
42859;BME280;28505;56.970;40.998;2023-01-08T07:02:32;101187.66;;;-16.19;100.00
42859;BME280;28505;56.970;40.998;2023-01-08T07:07:56;101208.88;;;-16.14;100.00
42859;BME280;28505;56.970;40.998;2023-01-08T07:13:30;101195.03;;;-16.27;100.00
42859;BME280;28505;56.970;40.998;2023-01-08T07:19:03;101223.84;;;-16.05;100.00
42859;BME280;28505;56.970;40.998;2023-01-08T07:24:41;101222.63;;;-15.99;100.00
42859;BME280;28505;56.970;40.998;2023-01-08T07:30:42;101246.63;;;-15.69;100.00
42859;BME280;28505;56.970;40.998;2023-01-08T07:42:13;101239.94;;;-15.59;100.00
42859;BME280;28505;56.970;40.998;2023-01-08T07:48:05;101255.22;;;-15.27;100.00
42859;BME280;28505;56.970;40.998;2023-01-08T07:53:41;101266.03;;;-15.20;100.00
42859;BME280;28505;56.970;40.998;2023-01-08T07:59:06;101253.94;;;-15.20;100.00
42859;BME280;28505;56.970;40.998;2023-01-08T08:04:29;101281.88;;;-14.98;100.00
42859;BME280;28505;56.970;40.998;2023-01-08T08:09:52;101251.44;;;-14.94;100.00
42859;BME280;28505;56.970;40.998;2023-01-08T08:15:14;101271.19;;;-14.79;100.00
42859;BME280;28505;56.970;40.998;2023-01-08T08:20:37;101268.53;;;-14.77;100.00
42859;BME280;28505;56.970;40.998;2023-01-08T08:26:03;101278.13;;;-14.79;100.00
42859;BME280;28505;56.970;40.998;2023-01-08T08:31:28;101264.06;;;-14.75;100.00
42859;BME280;28505;56.970;40.998;2023-01-08T08:36:50;101307.47;;;-14.26;100.00
42859;BME280;28505;56.970;40.998;2023-01-08T08:42:13;101308.25;;;-14.11;100.00
42859;BME280;28505;56.970;40.998;2023-01-08T08:47:38;101289.09;;;-14.36;100.00
42859;BME280;28505;56.970;40.998;2023-01-08T08:53:01;101284.34;;;-14.55;100.00
42859;BME280;28505;56.970;40.998;2023-01-08T08:58:23;101302.66;;;-14.45;100.00
42859;BME280;28505;56.970;40.998;2023-01-08T09:03:46;101318.97;;;-14.30;100.00
42859;BME280;28505;56.970;40.998;2023-01-08T09:09:15;101306.56;;;-14.25;100.00
42859;BME280;28505;56.970;40.998;2023-01-08T09:14:46;101327.94;;;-13.96;100.00
42859;BME280;28505;56.970;40.998;2023-01-08T09:20:14;101330.19;;;-14.17;100.00
42859;BME280;28505;56.970;40.998;2023-01-08T09:25:45;101329.38;;;-14.18;100.00
42859;BME280;28505;56.970;40.998;2023-01-08T09:31:07;101313.84;;;-14.05;100.00
42859;BME280;28505;56.970;40.998;2023-01-08T09:36:33;101343.53;;;-13.83;100.00
42859;BME280;28505;56.970;40.998;2023-01-08T09:42:02;101334.25;;;-14.00;100.00
42859;BME280;28505;56.970;40.998;2023-01-08T09:47:43;101314.13;;;-14.49;100.00
42859;BME280;28505;56.970;40.998;2023-01-08T09:53:15;101319.03;;;-14.57;100.00
42859;BME280;28505;56.970;40.998;2023-01-08T09:58:50;101348.78;;;-14.50;100.00
42859;BME280;28505;56.970;40.998;2023-01-08T10:04:43;101339.56;;;-14.69;100.00
42859;BME280;28505;56.970;40.998;2023-01-08T10:10:24;101342.75;;;-14.92;100.00
42859;BME280;28505;56.970;40.998;2023-01-08T10:15:51;101357.78;;;-14.70;100.00
42859;BME280;28505;56.970;40.998;2023-01-08T10:21:36;101333.47;;;-14.68;100.00
42859;BME280;28505;56.970;40.998;2023-01-08T10:27:15;101339.53;;;-14.54;100.00
42859;BME280;28505;56.970;40.998;2023-01-08T10:32:46;101342.53;;;-14.75;100.00
42859;BME280;28505;56.970;40.998;2023-01-08T10:38:33;101347.47;;;-14.99;100.00
42859;BME280;28505;56.970;40.998;2023-01-08T10:44:05;101351.66;;;-15.25;100.00
42859;BME280;28505;56.970;40.998;2023-01-08T10:49:48;101351.91;;;-15.44;100.00
42859;BME280;28505;56.970;40.998;2023-01-08T10:55:28;101368.28;;;-15.29;100.00
42859;BME280;28505;56.970;40.998;2023-01-08T11:00:52;101389.78;;;-15.14;100.00
42859;BME280;28505;56.970;40.998;2023-01-08T11:06:24;101384.63;;;-15.14;100.00
42859;BME280;28505;56.970;40.998;2023-01-08T11:11:56;101387.22;;;-15.28;100.00
42859;BME280;28505;56.970;40.998;2023-01-08T11:17:26;101404.97;;;-15.37;100.00
42859;BME280;28505;56.970;40.998;2023-01-08T11:23:24;101391.88;;;-15.64;100.00
42859;BME280;28505;56.970;40.998;2023-01-08T11:29:01;101386.59;;;-15.91;100.00
42859;BME280;28505;56.970;40.998;2023-01-08T11:34:49;101397.38;;;-15.98;100.00
42859;BME280;28505;56.970;40.998;2023-01-08T11:40:27;101408.25;;;-15.93;100.00
42859;BME280;28505;56.970;40.998;2023-01-08T11:51:52;101423.69;;;-15.92;100.00
42859;BME280;28505;56.970;40.998;2023-01-08T11:57:37;101419.38;;;-16.07;100.00
42859;BME280;28505;56.970;40.998;2023-01-08T12:26:06;101474.44;;;-16.54;100.00
42859;BME280;28505;56.970;40.998;2023-01-08T12:42:51;101491.03;;;-16.91;100.00
42859;BME280;28505;56.970;40.998;2023-01-08T12:48:27;101487.06;;;-17.32;100.00
42859;BME280;28505;56.970;40.998;2023-01-08T12:54:30;101510.84;;;-17.44;100.00
42859;BME280;28505;56.970;40.998;2023-01-08T13:06:04;101515.97;;;-17.96;100.00
42859;BME280;28505;56.970;40.998;2023-01-08T13:11:35;101520.22;;;-18.14;100.00
42859;BME280;28505;56.970;40.998;2023-01-08T13:17:14;101536.09;;;-18.23;100.00
42859;BME280;28505;56.970;40.998;2023-01-08T13:22:37;101527.44;;;-18.41;100.00
42859;BME280;28505;56.970;40.998;2023-01-08T13:28:00;101533.84;;;-18.50;100.00
42859;BME280;28505;56.970;40.998;2023-01-08T13:33:36;101539.31;;;-18.57;100.00
42859;BME280;28505;56.970;40.998;2023-01-08T13:44:37;101555.88;;;-18.63;100.00
42859;BME280;28505;56.970;40.998;2023-01-08T13:50:13;101552.91;;;-18.73;100.00
42859;BME280;28505;56.970;40.998;2023-01-08T13:55:39;101519.56;;;-18.95;100.00
42859;BME280;28505;56.970;40.998;2023-01-08T14:01:06;101526.81;;;-19.04;100.00
42859;BME280;28505;56.970;40.998;2023-01-08T14:07:16;101537.56;;;-19.15;100.00
42859;BME280;28505;56.970;40.998;2023-01-08T14:12:38;101529.19;;;-19.41;100.00
42859;BME280;28505;56.970;40.998;2023-01-08T14:18:03;101547.78;;;-19.56;100.00
42859;BME280;28505;56.970;40.998;2023-01-08T14:23:32;101548.81;;;-19.60;100.00
42859;BME280;28505;56.970;40.998;2023-01-08T14:28:55;101557.59;;;-19.66;100.00
42859;BME280;28505;56.970;40.998;2023-01-08T14:34:19;101552.78;;;-19.95;100.00
42859;BME280;28505;56.970;40.998;2023-01-08T14:39:47;101566.13;;;-20.09;100.00
42859;BME280;28505;56.970;40.998;2023-01-08T14:45:19;101540.13;;;-20.45;100.00
42859;BME280;28505;56.970;40.998;2023-01-08T14:50:50;101564.03;;;-20.45;100.00
42859;BME280;28505;56.970;40.998;2023-01-08T14:56:23;101560.03;;;-20.52;100.00
42859;BME280;28505;56.970;40.998;2023-01-08T15:01:55;101565.47;;;-20.60;100.00
42859;BME280;28505;56.970;40.998;2023-01-08T15:07:24;101557.69;;;-20.82;100.00
42859;BME280;28505;56.970;40.998;2023-01-08T15:12:56;101585.16;;;-20.87;100.00
42859;BME280;28505;56.970;40.998;2023-01-08T15:18:25;101567.28;;;-21.13;100.00
42859;BME280;28505;56.970;40.998;2023-01-08T15:23:54;101574.19;;;-21.40;100.00
42859;BME280;28505;56.970;40.998;2023-01-08T15:29:45;101577.13;;;-21.53;100.00
42859;BME280;28505;56.970;40.998;2023-01-08T15:35:25;101587.53;;;-21.57;100.00
42859;BME280;28505;56.970;40.998;2023-01-08T15:40:50;101598.63;;;-21.58;100.00
42859;BME280;28505;56.970;40.998;2023-01-08T15:46:25;101602.03;;;-21.86;100.00
42859;BME280;28505;56.970;40.998;2023-01-08T15:51:50;101588.56;;;-22.50;100.00
42859;BME280;28505;56.970;40.998;2023-01-08T15:57:18;101617.91;;;-22.63;100.00
42859;BME280;28505;56.970;40.998;2023-01-08T16:02:50;101624.22;;;-22.77;100.00
42859;BME280;28505;56.970;40.998;2023-01-08T16:08:12;101615.06;;;-22.85;100.00
42859;BME280;28505;56.970;40.998;2023-01-08T16:13:35;101613.66;;;-22.96;100.00
42859;BME280;28505;56.970;40.998;2023-01-08T16:18:57;101616.22;;;-23.30;100.00
42859;BME280;28505;56.970;40.998;2023-01-08T16:24:20;101607.53;;;-23.58;100.00
42859;BME280;28505;56.970;40.998;2023-01-08T16:29:42;101630.81;;;-23.72;100.00
42859;BME280;28505;56.970;40.998;2023-01-08T16:35:04;101642.06;;;-23.81;100.00
42859;BME280;28505;56.970;40.998;2023-01-08T16:40:26;101625.25;;;-23.90;100.00
42859;BME280;28505;56.970;40.998;2023-01-08T16:45:49;101611.63;;;-23.88;100.00
42859;BME280;28505;56.970;40.998;2023-01-08T16:51:13;101635.53;;;-23.94;100.00
42859;BME280;28505;56.970;40.998;2023-01-08T16:56:35;101628.03;;;-24.42;100.00
42859;BME280;28505;56.970;40.998;2023-01-08T17:01:57;101614.00;;;-24.62;100.00
42859;BME280;28505;56.970;40.998;2023-01-08T17:07:21;101599.03;;;-24.78;100.00
42859;BME280;28505;56.970;40.998;2023-01-08T17:12:49;101650.63;;;-24.69;100.00
42859;BME280;28505;56.970;40.998;2023-01-08T17:18:19;101628.53;;;-25.13;100.00
42859;BME280;28505;56.970;40.998;2023-01-08T17:23:51;101632.84;;;-25.18;100.00
42859;BME280;28505;56.970;40.998;2023-01-08T17:29:20;101628.50;;;-25.12;100.00
42859;BME280;28505;56.970;40.998;2023-01-08T17:34:56;101653.97;;;-25.15;100.00
42859;BME280;28505;56.970;40.998;2023-01-08T17:40:27;101648.56;;;-25.47;100.00
42859;BME280;28505;56.970;40.998;2023-01-08T17:45:49;101693.47;;;-25.45;100.00
42859;BME280;28505;56.970;40.998;2023-01-08T17:51:22;101672.72;;;-25.77;100.00
42859;BME280;28505;56.970;40.998;2023-01-08T17:56:47;101692.41;;;-25.90;100.00
42859;BME280;28505;56.970;40.998;2023-01-08T18:02:15;101715.19;;;-25.84;100.00
42859;BME280;28505;56.970;40.998;2023-01-08T18:07:44;101700.16;;;-26.01;100.00
42859;BME280;28505;56.970;40.998;2023-01-08T18:13:07;101720.59;;;-26.09;100.00
42859;BME280;28505;56.970;40.998;2023-01-08T18:18:30;101697.00;;;-26.20;100.00
42859;BME280;28505;56.970;40.998;2023-01-08T18:23:53;101706.47;;;-26.34;100.00
42859;BME280;28505;56.970;40.998;2023-01-08T18:29:22;101728.34;;;-26.21;100.00
42859;BME280;28505;56.970;40.998;2023-01-08T18:34:48;101733.41;;;-26.19;100.00
42859;BME280;28505;56.970;40.998;2023-01-08T18:40:24;101738.84;;;-26.55;100.00
42859;BME280;28505;56.970;40.998;2023-01-08T18:46:05;101728.31;;;-27.06;100.00
42859;BME280;28505;56.970;40.998;2023-01-08T18:51:32;101752.09;;;-27.19;100.00
42859;BME280;28505;56.970;40.998;2023-01-08T18:57:09;101756.34;;;-27.24;100.00
42859;BME280;28505;56.970;40.998;2023-01-08T19:02:36;101737.03;;;-27.43;100.00
42859;BME280;28505;56.970;40.998;2023-01-08T19:08:23;101752.97;;;-27.25;100.00
42859;BME280;28505;56.970;40.998;2023-01-08T19:13:45;101763.09;;;-27.21;100.00
42859;BME280;28505;56.970;40.998;2023-01-08T19:19:07;101756.22;;;-27.10;100.00
42859;BME280;28505;56.970;40.998;2023-01-08T19:24:29;101769.75;;;-27.07;100.00
42859;BME280;28505;56.970;40.998;2023-01-08T19:29:52;101784.97;;;-27.07;100.00
42859;BME280;28505;56.970;40.998;2023-01-08T19:35:15;101783.44;;;-27.34;100.00
42859;BME280;28505;56.970;40.998;2023-01-08T19:40:36;101761.66;;;-27.70;100.00
42859;BME280;28505;56.970;40.998;2023-01-08T19:46:05;101782.03;;;-27.81;100.00
42859;BME280;28505;56.970;40.998;2023-01-08T19:51:29;101779.50;;;-27.87;100.00
42859;BME280;28505;56.970;40.998;2023-01-08T19:56:52;101771.91;;;-27.84;100.00
42859;BME280;28505;56.970;40.998;2023-01-08T20:02:14;101774.44;;;-27.93;100.00
42859;BME280;28505;56.970;40.998;2023-01-08T20:07:36;101762.72;;;-28.20;100.00
42859;BME280;28505;56.970;40.998;2023-01-08T20:13:10;101793.97;;;-28.33;100.00
42859;BME280;28505;56.970;40.998;2023-01-08T20:18:38;101806.66;;;-28.52;100.00
42859;BME280;28505;56.970;40.998;2023-01-08T20:24:05;101800.78;;;-28.72;100.00
42859;BME280;28505;56.970;40.998;2023-01-08T20:29:35;101796.56;;;-28.72;100.00
42859;BME280;28505;56.970;40.998;2023-01-08T20:35:15;101821.00;;;-28.51;100.00
42859;BME280;28505;56.970;40.998;2023-01-08T20:40:50;101810.88;;;-28.64;100.00
42859;BME280;28505;56.970;40.998;2023-01-08T20:46:33;101814.25;;;-29.04;100.00
42859;BME280;28505;56.970;40.998;2023-01-08T20:52:13;101805.78;;;-29.35;100.00
42859;BME280;28505;56.970;40.998;2023-01-08T20:57:51;101836.13;;;-29.26;100.00
42859;BME280;28505;56.970;40.998;2023-01-08T21:03:43;101861.41;;;-29.23;100.00
42859;BME280;28505;56.970;40.998;2023-01-08T21:09:12;101837.72;;;-29.58;100.00
42859;BME280;28505;56.970;40.998;2023-01-08T21:14:37;101857.94;;;-29.60;100.00
42859;BME280;28505;56.970;40.998;2023-01-08T21:19:59;101846.16;;;-29.52;100.00
42859;BME280;28505;56.970;40.998;2023-01-08T21:25:22;101850.38;;;-29.46;100.00
42859;BME280;28505;56.970;40.998;2023-01-08T21:30:44;101862.13;;;-29.56;100.00
42859;BME280;28505;56.970;40.998;2023-01-08T21:36:10;101879.78;;;-29.56;100.00
42859;BME280;28505;56.970;40.998;2023-01-08T21:41:32;101878.13;;;-29.62;99.76
42859;BME280;28505;56.970;40.998;2023-01-08T21:47:15;101883.84;;;-29.92;98.44
42859;BME280;28505;56.970;40.998;2023-01-08T21:52:40;101883.78;;;-30.04;98.22
42859;BME280;28505;56.970;40.998;2023-01-08T21:58:21;101897.16;;;-30.11;98.10
42859;BME280;28505;56.970;40.998;2023-01-08T22:09:59;101887.03;;;-30.23;98.81
42859;BME280;28505;56.970;40.998;2023-01-08T22:15:28;101897.31;;;-29.93;99.21
42859;BME280;28505;56.970;40.998;2023-01-08T22:21:08;101895.69;;;-29.83;98.78
42859;BME280;28505;56.970;40.998;2023-01-08T22:26:34;101914.13;;;-29.92;98.28
42859;BME280;28505;56.970;40.998;2023-01-08T22:32:06;101925.13;;;-29.85;98.48
42859;BME280;28505;56.970;40.998;2023-01-08T22:37:34;101927.72;;;-29.77;98.23
42859;BME280;28505;56.970;40.998;2023-01-08T22:42:59;101895.47;;;-30.15;97.37
42859;BME280;28505;56.970;40.998;2023-01-08T22:48:49;101909.06;;;-30.01;97.51
42859;BME280;28505;56.970;40.998;2023-01-08T22:54:18;101906.44;;;-30.12;96.78
42859;BME280;28505;56.970;40.998;2023-01-08T22:59:41;101897.91;;;-30.30;96.27
42859;BME280;28505;56.970;40.998;2023-01-08T23:05:10;101923.03;;;-30.41;95.56
42859;BME280;28505;56.970;40.998;2023-01-08T23:10:32;101910.09;;;-30.83;95.04
42859;BME280;28505;56.970;40.998;2023-01-08T23:15:55;101937.81;;;-30.84;94.86
42859;BME280;28505;56.970;40.998;2023-01-08T23:21:25;101927.53;;;-31.01;95.25
42859;BME280;28505;56.970;40.998;2023-01-08T23:26:53;101922.50;;;-31.01;95.16
42859;BME280;28505;56.970;40.998;2023-01-08T23:32:21;101919.94;;;-31.02;95.07
42859;BME280;28505;56.970;40.998;2023-01-08T23:37:43;101933.66;;;-30.79;95.40
42859;BME280;28505;56.970;40.998;2023-01-08T23:43:10;101947.13;;;-30.74;95.19
42859;BME280;28505;56.970;40.998;2023-01-08T23:48:34;101952.81;;;-30.93;94.38
42859;BME280;28505;56.970;40.998;2023-01-08T23:53:57;101949.59;;;-30.82;94.78
42859;BME280;28505;56.970;40.998;2023-01-08T23:59:22;101947.91;;;-30.81;94.95
